createdAt,value
2018-10-05T00:00:46.449Z,10.00
2018-10-05T00:03:14.427Z,9.30
2018-10-05T00:05:42.365Z,9.75
2018-10-05T00:08:10.325Z,8.25
2018-10-05T00:10:38.253Z,12.00
2018-10-05T00:13:06.383Z,8.55
2018-10-05T00:15:34.301Z,9.90
2018-10-05T00:18:02.309Z,8.50
2018-10-05T00:20:30.324Z,9.05
2018-10-05T00:22:58.317Z,10.43
2018-10-05T00:25:26.268Z,10.20
2018-10-05T00:27:54.244Z,10.58
2018-10-05T00:30:22.183Z,10.50
2018-10-05T00:32:50.140Z,9.88
2018-10-05T00:35:18.151Z,12.47
2018-10-05T00:37:46.105Z,9.03
2018-10-05T00:40:14.091Z,11.80
2018-10-05T00:42:42.010Z,11.45
2018-10-05T00:45:10.021Z,11.40
2018-10-05T00:47:37.961Z,14.25
2018-10-05T00:50:05.985Z,13.18
2018-10-05T00:52:33.881Z,11.88
2018-10-05T00:55:01.808Z,12.23
2018-10-05T00:57:29.731Z,9.68
2018-10-05T00:59:57.657Z,10.58
2018-10-05T01:02:25.736Z,11.00
2018-10-05T01:04:53.734Z,11.20
2018-10-05T01:07:21.669Z,12.55
2018-10-05T01:09:49.849Z,11.70
2018-10-05T01:12:17.793Z,9.20
2018-10-05T01:14:45.733Z,10.70
2018-10-05T01:17:13.674Z,10.93
2018-10-05T01:19:42.004Z,10.10
2018-10-05T01:22:09.877Z,9.70
2018-10-05T01:24:37.788Z,12.07
2018-10-05T01:27:05.782Z,10.78
2018-10-05T01:29:33.752Z,9.88
2018-10-05T01:32:01.714Z,12.30
2018-10-05T01:34:29.765Z,12.88
2018-10-05T01:36:57.697Z,10.53
2018-10-05T01:39:25.690Z,10.98
2018-10-05T01:41:53.661Z,11.50
2018-10-05T01:44:21.645Z,13.08
2018-10-05T01:46:49.570Z,13.18
2018-10-05T01:49:17.532Z,11.33
2018-10-05T01:51:45.476Z,13.00
2018-10-05T01:54:13.407Z,13.48
2018-10-05T01:56:41.370Z,13.95
2018-10-05T01:59:09.229Z,17.42
2018-10-05T02:01:37.233Z,14.28
2018-10-05T02:04:05.197Z,12.95
2018-10-05T02:06:33.275Z,12.28
2018-10-05T02:09:01.289Z,15.90
2018-10-05T02:11:29.213Z,16.17
2018-10-05T02:13:57.176Z,18.62
2018-10-05T02:16:25.045Z,14.03
2018-10-05T02:18:52.964Z,12.88
2018-10-05T02:21:20.874Z,11.97
2018-10-05T02:23:48.778Z,11.60
2018-10-05T02:26:16.488Z,15.10
2018-10-05T02:28:44.241Z,13.95
2018-10-05T02:31:12.018Z,14.73
2018-10-05T02:33:39.732Z,13.53
2018-10-05T02:36:07.452Z,14.50
2018-10-05T02:38:35.190Z,11.40
2018-10-05T02:41:03.374Z,12.13
2018-10-05T02:43:31.150Z,11.73
2018-10-05T02:45:58.959Z,11.20
2018-10-05T02:48:26.889Z,11.93
2018-10-05T02:50:54.832Z,9.88
2018-10-05T02:53:23.173Z,9.20
2018-10-05T02:55:51.122Z,9.48
2018-10-05T02:58:19.064Z,8.80
2018-10-05T03:00:58.076Z,8.58
2018-10-05T03:03:26.015Z,9.13
2018-10-05T03:05:53.909Z,9.70
2018-10-05T03:08:21.864Z,9.13
2018-10-05T03:10:49.803Z,10.23
2018-10-05T03:13:17.776Z,15.88
2018-10-05T03:15:45.721Z,8.75
2018-10-05T03:18:13.724Z,9.10
2018-10-05T03:20:41.673Z,10.88
2018-10-05T03:23:09.544Z,12.33
2018-10-05T03:25:37.535Z,10.60
2018-10-05T03:28:05.487Z,10.30
2018-10-05T03:30:33.404Z,10.35
2018-10-05T03:33:01.333Z,11.38
2018-10-05T03:35:29.591Z,14.63
2018-10-05T03:37:57.513Z,11.95
2018-10-05T03:40:25.471Z,11.38
2018-10-05T03:42:53.445Z,12.53
2018-10-05T03:45:21.361Z,12.80
2018-10-05T03:47:49.338Z,12.45
2018-10-05T03:50:17.261Z,11.97
2018-10-05T03:52:45.178Z,11.15
2018-10-05T03:55:13.185Z,11.35
2018-10-05T03:57:41.092Z,10.43
2018-10-05T04:00:09.065Z,10.60
2018-10-05T04:02:37.073Z,9.95
2018-10-05T04:05:05.107Z,14.75
2018-10-05T04:07:33.170Z,13.75
2018-10-05T04:10:01.172Z,11.70
2018-10-05T04:12:29.083Z,11.97
2018-10-05T04:14:57.001Z,13.75
2018-10-05T04:17:24.960Z,15.35
2018-10-05T04:19:53.021Z,16.65
2018-10-05T04:22:30.021Z,16.20
2018-10-05T04:24:58.163Z,19.27
2018-10-05T04:27:26.365Z,20.82
2018-10-05T04:29:55.075Z,17.65
2018-10-05T04:32:23.074Z,13.32
2018-10-05T04:34:51.097Z,13.90
2018-10-05T04:37:19.069Z,11.88
2018-10-05T04:39:47.213Z,15.45
2018-10-05T04:42:20.498Z,11.95
2018-10-05T04:44:48.778Z,10.32
2018-10-05T04:47:16.663Z,10.75
2018-10-05T04:49:44.524Z,10.38
2018-10-05T04:52:12.285Z,11.80
2018-10-05T04:54:40.156Z,10.85
2018-10-05T04:57:07.998Z,14.18
2018-10-05T04:59:35.773Z,12.50
2018-10-05T05:02:03.543Z,15.68
2018-10-05T05:04:31.543Z,10.58
2018-10-05T05:06:59.308Z,9.50
2018-10-05T05:09:27.178Z,14.03
2018-10-05T05:11:54.994Z,16.45
2018-10-05T05:14:22.843Z,12.85
2018-10-05T05:16:50.653Z,14.30
2018-10-05T05:19:18.465Z,20.08
2018-10-05T05:21:46.406Z,17.67
2018-10-05T05:24:14.158Z,19.98
2018-10-05T05:26:42.202Z,17.70
2018-10-05T05:29:10.164Z,16.25
2018-10-05T05:31:38.258Z,14.83
2018-10-05T05:34:06.527Z,11.60
2018-10-05T05:36:34.477Z,10.30
2018-10-05T05:39:02.946Z,11.35
2018-10-05T05:41:30.926Z,11.00
2018-10-05T05:43:58.840Z,11.10
2018-10-05T05:46:27.722Z,13.40
2018-10-05T05:48:55.808Z,15.83
2018-10-05T05:51:23.809Z,11.73
2018-10-05T05:53:52.045Z,12.20
2018-10-05T05:56:20.041Z,10.50
2018-10-05T05:58:48.047Z,9.45
2018-10-05T06:01:16.000Z,10.72
2018-10-05T06:03:43.958Z,8.65
2018-10-05T06:06:11.978Z,10.58
2018-10-05T06:08:40.065Z,10.23
2018-10-05T06:11:08.045Z,7.33
2018-10-05T06:13:36.043Z,10.95
2018-10-05T06:16:04.355Z,11.90
2018-10-05T06:18:33.349Z,10.53
2018-10-05T06:21:01.327Z,9.50
2018-10-05T06:23:29.354Z,9.40
2018-10-05T06:25:57.429Z,9.73
2018-10-05T06:28:25.400Z,10.90
2018-10-05T06:30:53.579Z,10.80
2018-10-05T06:33:21.527Z,11.08
2018-10-05T06:35:49.524Z,14.63
2018-10-05T06:38:17.825Z,13.35
2018-10-05T06:40:45.797Z,12.30
2018-10-05T06:43:13.776Z,16.95
2018-10-05T06:45:41.757Z,12.05
2018-10-05T06:48:09.773Z,11.38
2018-10-05T06:50:37.861Z,12.70
2018-10-05T06:53:06.097Z,11.10
2018-10-05T06:55:34.119Z,13.60
2018-10-05T06:58:02.050Z,14.60
2018-10-05T07:00:30.026Z,11.20
2018-10-05T07:02:57.959Z,13.18
2018-10-05T07:05:25.964Z,10.72
2018-10-05T07:07:53.989Z,12.93
2018-10-05T07:10:21.929Z,11.20
2018-10-05T07:12:49.856Z,13.88
2018-10-05T07:15:17.820Z,12.03
2018-10-05T07:17:45.725Z,13.28
2018-10-05T07:20:13.693Z,11.53
2018-10-05T07:22:41.715Z,12.78
2018-10-05T07:25:09.643Z,12.40
2018-10-05T07:27:37.586Z,12.07
2018-10-05T07:30:06.117Z,13.10
2018-10-05T07:32:34.113Z,14.25
2018-10-05T07:35:02.052Z,13.48
2018-10-05T07:37:30.089Z,16.45
2018-10-05T07:39:58.035Z,13.28
2018-10-05T07:42:26.022Z,16.70
2018-10-05T07:44:53.946Z,16.07
2018-10-05T07:47:21.979Z,17.50
2018-10-05T07:49:49.940Z,24.77
2018-10-05T07:52:21.108Z,17.48
2018-10-05T07:54:49.069Z,18.90
2018-10-05T07:57:17.057Z,17.82
2018-10-05T07:59:45.023Z,19.75
2018-10-05T08:02:13.012Z,16.87
2018-10-05T08:04:40.985Z,19.35
2018-10-05T08:07:09.317Z,17.70
2018-10-05T08:09:37.299Z,18.98
2018-10-05T08:12:05.169Z,18.32
2018-10-05T08:14:33.134Z,17.32
2018-10-05T08:17:01.041Z,18.35
2018-10-05T08:19:29.000Z,15.23
2018-10-05T08:21:56.956Z,18.77
2018-10-05T08:24:24.845Z,18.07
2018-10-05T08:26:52.780Z,27.25
2018-10-05T08:29:20.761Z,19.35
2018-10-05T08:31:48.734Z,16.50
2018-10-05T08:34:16.703Z,19.42
2018-10-05T08:36:44.711Z,16.02
2018-10-05T08:39:12.741Z,17.52
2018-10-05T08:41:40.717Z,19.07
2018-10-05T08:44:09.083Z,19.92
2018-10-05T08:46:37.004Z,18.92
2018-10-05T08:49:05.276Z,19.67
2018-10-05T08:51:33.278Z,16.30
2018-10-05T08:54:01.241Z,16.87
2018-10-05T08:56:29.160Z,20.70
2018-10-05T08:58:57.098Z,22.58
2018-10-05T09:01:25.032Z,16.52
2018-10-05T09:03:52.989Z,17.00
2018-10-05T09:06:20.966Z,18.80
2018-10-05T09:08:48.848Z,19.17
2018-10-05T09:11:16.721Z,16.00
2018-10-05T09:13:44.703Z,17.87
2018-10-05T09:16:12.689Z,20.97
2018-10-05T09:18:40.572Z,25.23
2018-10-05T09:21:08.501Z,14.30
2018-10-05T09:23:36.449Z,14.37
2018-10-05T09:26:04.381Z,11.53
2018-10-05T09:28:32.342Z,12.47
2018-10-05T09:31:00.299Z,15.60
2018-10-05T09:33:28.291Z,13.80
2018-10-05T09:35:56.213Z,16.27
2018-10-05T09:38:24.158Z,13.87
2018-10-05T09:40:52.129Z,14.33
2018-10-05T09:43:20.069Z,12.87
2018-10-05T09:45:48.022Z,15.63
2018-10-05T09:48:15.996Z,12.70
2018-10-05T09:50:43.931Z,12.20
2018-10-05T09:53:11.865Z,13.50
2018-10-05T09:55:39.803Z,13.20
2018-10-05T09:58:07.762Z,11.73
2018-10-05T10:00:41.280Z,11.77
2018-10-05T10:03:14.901Z,16.47
2018-10-05T10:05:42.875Z,13.90
2018-10-05T10:08:10.911Z,13.63
2018-10-05T10:10:38.821Z,10.20
2018-10-05T10:13:07.041Z,9.03
2018-10-05T10:15:34.953Z,11.17
2018-10-05T10:18:02.972Z,11.93
2018-10-05T10:20:30.949Z,9.27
2018-10-05T10:22:58.870Z,8.50
2018-10-05T10:25:26.808Z,9.53
2018-10-05T10:27:54.811Z,9.17
2018-10-05T10:30:22.713Z,9.20
2018-10-05T10:35:25.325Z,8.80
2018-10-05T10:37:53.268Z,7.90
2018-10-05T10:40:21.165Z,8.83
2018-10-05T10:42:49.096Z,10.00
2018-10-05T10:45:17.081Z,8.07
2018-10-05T10:47:45.049Z,6.63
2018-10-05T10:50:13.060Z,7.37
2018-10-05T10:52:41.040Z,5.27
2018-10-05T10:55:09.055Z,5.50
2018-10-05T10:57:36.924Z,7.23
2018-10-05T11:00:05.128Z,7.13
2018-10-05T11:02:33.191Z,6.30
2018-10-05T11:05:01.274Z,7.70
2018-10-05T11:07:29.130Z,12.07
2018-10-05T11:09:57.131Z,7.43
2018-10-05T11:12:25.043Z,8.50
2018-10-05T11:14:53.054Z,7.30
2018-10-05T11:17:20.953Z,8.00
2018-10-05T11:19:48.911Z,6.37
2018-10-05T11:22:16.848Z,7.70
2018-10-05T11:24:44.832Z,8.60
2018-10-05T11:27:12.785Z,8.53
2018-10-05T11:29:40.963Z,9.47
2018-10-05T11:32:09.214Z,8.37
2018-10-05T11:34:37.177Z,8.10
2018-10-05T11:37:05.495Z,7.87
2018-10-05T11:39:33.481Z,8.43
2018-10-05T11:42:01.406Z,6.87
2018-10-05T11:44:29.338Z,8.17
2018-10-05T11:46:57.256Z,6.87
2018-10-05T11:49:25.221Z,7.67
2018-10-05T11:51:53.192Z,8.20
2018-10-05T11:54:21.114Z,6.37
2018-10-05T11:56:49.090Z,7.10
2018-10-05T11:59:17.191Z,7.77
2018-10-05T12:01:45.258Z,7.87
2018-10-05T12:04:13.215Z,6.87
2018-10-05T12:06:41.425Z,7.10
2018-10-05T12:09:09.607Z,7.60
2018-10-05T12:11:38.141Z,9.47
2018-10-05T12:14:06.058Z,8.70
2018-10-05T12:16:34.052Z,9.33
2018-10-05T12:19:02.096Z,6.27
2018-10-05T12:21:30.042Z,7.90
2018-10-05T12:23:57.985Z,9.03
2018-10-05T12:26:25.961Z,8.20
2018-10-05T12:28:53.945Z,6.13
2018-10-05T12:31:21.885Z,7.90
2018-10-05T12:33:49.992Z,6.47
2018-10-05T12:36:17.926Z,7.17
2018-10-05T12:38:45.806Z,7.80
2018-10-05T12:41:13.672Z,6.97
2018-10-05T12:43:41.669Z,6.87
2018-10-05T12:46:09.594Z,7.70
2018-10-05T12:48:37.619Z,7.53
2018-10-05T12:51:05.678Z,6.60
2018-10-05T12:53:33.669Z,9.60
2018-10-05T12:56:01.622Z,6.73
2018-10-05T12:58:29.565Z,7.73
2018-10-05T13:00:57.467Z,6.20
2018-10-05T13:03:25.424Z,6.67
2018-10-05T13:05:53.326Z,6.23
2018-10-05T13:08:21.209Z,8.00
2018-10-05T13:10:49.169Z,6.67
2018-10-05T13:13:17.170Z,6.73
2018-10-05T13:15:45.142Z,5.50
2018-10-05T13:18:13.130Z,6.60
2018-10-05T13:20:41.014Z,6.47
2018-10-05T13:23:09.054Z,6.00
2018-10-05T13:25:37.059Z,6.00
2018-10-05T13:28:05.149Z,6.70
2018-10-05T13:30:33.131Z,7.47
2018-10-05T13:33:01.087Z,6.30
2018-10-05T13:35:29.041Z,6.30
2018-10-05T13:37:56.936Z,5.20
2018-10-05T13:40:24.908Z,6.50
2018-10-05T13:42:52.853Z,5.77
2018-10-05T13:45:20.868Z,6.20
2018-10-05T13:47:48.733Z,4.93
2018-10-05T13:50:16.658Z,5.40
2018-10-05T13:52:44.615Z,5.67
2018-10-05T13:55:12.505Z,4.93
2018-10-05T13:57:40.432Z,5.33
2018-10-05T14:00:08.484Z,4.87
2018-10-05T14:02:36.485Z,5.47
2018-10-05T14:05:04.450Z,5.00
2018-10-05T14:07:32.389Z,5.27
2018-10-05T14:10:00.317Z,4.40
2018-10-05T14:12:28.242Z,5.77
2018-10-05T14:14:56.166Z,5.30
2018-10-05T14:17:24.161Z,6.80
2018-10-05T14:19:52.080Z,4.83
2018-10-05T14:22:19.828Z,4.77
2018-10-05T14:24:47.806Z,5.10
2018-10-05T14:27:15.802Z,5.60
2018-10-05T14:29:43.759Z,4.73
2018-10-05T14:32:11.732Z,7.03
2018-10-05T14:34:39.688Z,5.20
2018-10-05T14:37:07.674Z,6.80
2018-10-05T14:39:35.752Z,5.20
2018-10-05T14:42:03.753Z,5.63
2018-10-05T14:44:31.750Z,5.03
2018-10-05T14:46:59.704Z,4.47
2018-10-05T14:49:27.611Z,4.43
2018-10-05T14:51:55.538Z,5.33
2018-10-05T14:54:23.467Z,4.47
2018-10-05T14:56:51.393Z,6.00
2018-10-05T14:59:19.322Z,4.70
2018-10-05T15:01:47.308Z,4.00
2018-10-05T15:04:15.249Z,5.27
2018-10-05T15:06:43.193Z,4.70
2018-10-05T15:09:11.263Z,4.87
2018-10-05T15:11:39.657Z,4.80
2018-10-05T15:14:07.635Z,4.90
2018-10-05T15:16:35.565Z,4.60
2018-10-05T15:19:03.594Z,4.03
2018-10-05T15:21:31.556Z,8.20
2018-10-05T15:23:59.729Z,5.47
2018-10-05T15:26:27.669Z,4.07
2018-10-05T15:28:55.630Z,4.13
2018-10-05T15:31:24.185Z,4.60
2018-10-05T15:33:52.212Z,5.10
2018-10-05T15:36:20.295Z,4.83
2018-10-05T15:38:48.232Z,5.03
2018-10-05T15:41:16.174Z,4.47
2018-10-05T15:43:44.081Z,4.50
2018-10-05T15:46:22.016Z,4.00
2018-10-05T15:48:49.974Z,3.97
2018-10-05T15:51:17.944Z,4.37
2018-10-05T15:53:45.902Z,5.60
2018-10-05T15:56:13.900Z,7.13
2018-10-05T15:58:41.813Z,6.03
2018-10-05T16:01:09.800Z,6.70
2018-10-05T16:03:37.774Z,6.27
2018-10-05T16:06:05.840Z,5.23
2018-10-05T16:08:33.766Z,5.87
2018-10-05T16:11:01.730Z,5.10
2018-10-05T16:13:29.651Z,6.33
2018-10-05T16:15:57.573Z,7.83
2018-10-05T16:18:25.668Z,5.90
2018-10-05T16:20:53.445Z,6.03
2018-10-05T16:23:21.342Z,5.40
2018-10-05T16:25:49.222Z,5.90
2018-10-05T16:28:16.988Z,8.30
2018-10-05T16:30:44.801Z,5.73
2018-10-05T16:33:12.666Z,6.40
2018-10-05T16:35:40.504Z,6.57
2018-10-05T16:38:08.291Z,6.30
2018-10-05T16:40:36.064Z,9.23
2018-10-05T16:43:03.979Z,7.57
2018-10-05T16:45:31.779Z,6.57
2018-10-05T16:47:59.696Z,8.20
2018-10-05T16:50:27.668Z,7.80
2018-10-05T16:52:55.586Z,7.63
2018-10-05T16:55:23.611Z,6.90
2018-10-05T16:57:51.523Z,8.90
2018-10-05T17:00:19.401Z,7.67
2018-10-05T17:02:47.397Z,8.40
2018-10-05T17:05:15.910Z,9.87
2018-10-05T17:07:43.853Z,10.20
2018-10-05T17:10:11.805Z,10.17
2018-10-05T17:12:39.742Z,7.87
2018-10-05T17:15:07.778Z,8.93
2018-10-05T17:17:35.666Z,7.20
2018-10-05T17:20:03.684Z,6.90
2018-10-05T17:22:31.650Z,7.50
2018-10-05T17:24:59.519Z,6.73
2018-10-05T17:27:27.892Z,7.00
2018-10-05T17:29:55.824Z,9.03
2018-10-05T17:32:24.355Z,5.90
2018-10-05T17:34:52.331Z,6.10
2018-10-05T17:37:20.216Z,7.13
2018-10-05T17:39:48.198Z,8.60
2018-10-05T17:42:16.253Z,7.10
2018-10-05T17:44:44.224Z,8.90
2018-10-05T17:47:12.134Z,6.57
2018-10-05T17:49:40.092Z,6.07
2018-10-05T17:52:08.005Z,7.83
2018-10-05T17:54:35.956Z,7.90
2018-10-05T17:57:03.889Z,7.77
2018-10-05T17:59:31.814Z,8.63
2018-10-05T18:01:59.870Z,10.97
2018-10-05T18:04:27.768Z,10.73
2018-10-05T18:06:55.685Z,11.80
2018-10-05T18:09:23.667Z,13.27
2018-10-05T18:11:51.597Z,12.27
2018-10-05T18:14:19.557Z,12.43
2018-10-05T18:16:47.556Z,13.03
2018-10-05T18:19:15.493Z,12.30
2018-10-05T18:21:43.452Z,11.80
2018-10-05T18:24:11.451Z,11.80
2018-10-05T18:26:39.346Z,15.23
2018-10-05T18:29:07.269Z,10.67
2018-10-05T18:31:35.201Z,11.63
2018-10-05T18:34:03.174Z,10.30
2018-10-05T18:36:31.714Z,9.67
2018-10-05T18:38:59.781Z,12.57
2018-10-05T18:41:27.768Z,10.30
2018-10-05T18:43:55.705Z,10.87
2018-10-05T18:46:23.601Z,12.50
2018-10-05T18:48:51.514Z,11.23
2018-10-05T18:51:19.553Z,11.57
2018-10-05T18:53:47.460Z,14.07
2018-10-05T18:56:26.399Z,17.10
2018-10-05T18:58:54.333Z,13.20
2018-10-05T19:01:22.254Z,13.53
2018-10-05T19:03:50.188Z,12.77
2018-10-05T19:06:18.557Z,13.73
2018-10-05T19:08:46.542Z,13.60
2018-10-05T19:11:14.464Z,11.60
2018-10-05T19:13:42.506Z,13.40
2018-10-05T19:16:10.519Z,12.67
2018-10-05T19:18:38.467Z,13.70
2018-10-05T19:21:06.408Z,13.70
2018-10-05T19:23:34.357Z,12.00
2018-10-05T19:26:02.385Z,11.40
2018-10-05T19:28:30.342Z,12.03
2018-10-05T19:30:58.249Z,9.57
2018-10-05T19:33:26.280Z,11.00
2018-10-05T19:35:54.200Z,13.47
2018-10-05T19:38:22.222Z,11.30
2018-10-05T19:40:50.132Z,9.27
2018-10-05T19:43:18.195Z,11.30
2018-10-05T19:45:46.117Z,11.57
2018-10-05T19:48:14.052Z,11.13
2018-10-05T19:50:42.043Z,10.90
2018-10-05T19:53:10.063Z,10.80
2018-10-05T19:55:37.909Z,14.23
2018-10-05T19:58:05.902Z,10.33
2018-10-05T20:00:33.861Z,10.97
2018-10-05T20:03:01.758Z,10.30
2018-10-05T20:05:29.696Z,10.03
2018-10-05T20:07:57.602Z,12.07
2018-10-05T20:10:25.690Z,11.97
2018-10-05T20:12:53.645Z,11.83
2018-10-05T20:15:21.601Z,9.90
2018-10-05T20:17:49.679Z,11.23
2018-10-05T20:20:17.497Z,9.67
2018-10-05T20:22:45.424Z,9.80
2018-10-05T20:25:13.375Z,11.07
2018-10-05T20:27:41.311Z,12.20
2018-10-05T20:30:09.521Z,10.13
2018-10-05T20:32:37.592Z,10.90
2018-10-05T20:35:05.550Z,11.53
2018-10-05T20:37:33.707Z,12.23
2018-10-05T20:40:01.489Z,11.03
2018-10-05T20:42:29.473Z,10.15
2018-10-05T20:44:57.409Z,12.90
2018-10-05T20:47:25.378Z,10.95
2018-10-05T20:49:53.344Z,10.08
2018-10-05T20:52:21.270Z,10.00
2018-10-05T20:54:49.241Z,10.70
2018-10-05T20:57:17.212Z,11.45
2018-10-05T20:59:45.178Z,9.75
2018-10-05T21:02:13.113Z,11.00
2018-10-05T21:04:41.017Z,10.83
2018-10-05T21:07:08.977Z,11.00
2018-10-05T21:09:36.886Z,11.78
2018-10-05T21:12:04.789Z,10.55
2018-10-05T21:14:32.695Z,8.88
2018-10-05T21:17:03.632Z,9.80
2018-10-05T21:19:31.527Z,9.00
2018-10-05T21:21:59.558Z,9.38
2018-10-05T21:24:27.480Z,10.40
2018-10-05T21:26:55.364Z,10.10
2018-10-05T21:29:23.334Z,11.25
2018-10-05T21:31:51.283Z,8.90
2018-10-05T21:34:19.226Z,10.15
2018-10-05T21:36:47.129Z,10.23
2018-10-05T21:39:15.055Z,10.82
2018-10-05T21:41:43.077Z,9.08
2018-10-05T21:44:11.086Z,8.98
2018-10-05T21:46:39.527Z,9.35
2018-10-05T21:49:07.441Z,9.00
2018-10-05T21:51:35.581Z,9.08
2018-10-05T21:54:03.465Z,10.98
2018-10-05T21:56:31.358Z,10.75
2018-10-05T21:58:59.337Z,11.20
2018-10-05T22:01:27.231Z,11.10
2018-10-05T22:03:55.157Z,9.78
2018-10-05T22:06:23.100Z,12.05
2018-10-05T22:08:51.037Z,14.60
2018-10-05T22:11:18.966Z,18.60
2018-10-05T22:13:46.970Z,16.85
2018-10-05T22:16:14.973Z,13.38
2018-10-05T22:18:42.854Z,12.23
2018-10-05T22:21:10.907Z,13.50
2018-10-05T22:23:38.822Z,16.48
2018-10-05T22:26:06.784Z,15.78
2018-10-05T22:28:34.816Z,14.73
2018-10-05T22:31:09.534Z,16.15
2018-10-05T22:33:37.498Z,15.70
2018-10-05T22:36:05.444Z,16.07
2018-10-05T22:38:33.386Z,13.55
2018-10-05T22:41:01.328Z,14.10
2018-10-05T22:43:29.253Z,13.48
2018-10-05T22:45:57.196Z,9.58
2018-10-05T22:48:25.081Z,8.80
2018-10-05T22:50:53.024Z,9.43
2018-10-05T22:53:20.905Z,10.00
2018-10-05T22:55:48.789Z,8.35
2018-10-05T22:58:16.752Z,8.75
2018-10-05T23:00:44.681Z,10.60
2018-10-05T23:03:12.618Z,8.80
2018-10-05T23:05:40.541Z,8.90
2018-10-05T23:08:08.469Z,9.25
2018-10-05T23:10:36.414Z,10.32
2018-10-05T23:13:04.389Z,8.50
2018-10-05T23:15:32.302Z,8.50
2018-10-05T23:18:00.173Z,8.90
2018-10-05T23:20:28.113Z,9.43
2018-10-05T23:22:56.118Z,9.55
2018-10-05T23:25:24.014Z,9.83
2018-10-05T23:27:51.966Z,11.08
2018-10-05T23:30:19.877Z,9.50
2018-10-05T23:32:47.787Z,9.98
2018-10-05T23:35:15.737Z,8.30
2018-10-05T23:37:43.644Z,10.25
2018-10-05T23:40:11.580Z,11.08
2018-10-05T23:42:39.423Z,10.88
2018-10-05T23:45:07.421Z,11.95
2018-10-05T23:47:35.359Z,13.45
2018-10-05T23:50:03.306Z,11.90
2018-10-05T23:52:36.822Z,11.73
2018-10-05T23:55:05.378Z,12.10
2018-10-05T23:57:34.226Z,10.63
